createdAt,value
2019-01-25T00:00:35.669Z,116.53
2019-01-25T00:03:24.259Z,107.50
2019-01-25T00:06:13.210Z,104.73
2019-01-25T00:09:01.774Z,101.53
2019-01-25T00:11:50.038Z,120.57
2019-01-25T00:14:38.594Z,109.30
2019-01-25T00:17:27.699Z,115.43
2019-01-25T00:20:17.284Z,94.97
2019-01-25T00:23:05.979Z,108.87
2019-01-25T00:25:54.988Z,94.33
2019-01-25T00:28:43.750Z,91.13
2019-01-25T00:31:32.895Z,96.20
2019-01-25T00:34:21.860Z,104.40
2019-01-25T00:37:11.038Z,97.93
2019-01-25T00:40:05.983Z,100.90
2019-01-25T00:42:50.225Z,98.17
2019-01-25T00:45:39.082Z,98.87
2019-01-25T00:48:16.589Z,95.30
2019-01-25T00:51:06.085Z,91.67
2019-01-25T00:53:54.979Z,97.60
2019-01-25T00:56:43.615Z,97.20
2019-01-25T00:59:13.699Z,97.97
2019-01-25T01:02:02.406Z,104.00
2019-01-25T01:04:51.010Z,100.93
2019-01-25T01:07:40.019Z,103.63
2019-01-25T01:10:28.874Z,97.60
2019-01-25T01:13:17.550Z,85.73
2019-01-25T01:16:06.039Z,87.40
2019-01-25T01:18:54.898Z,92.50
2019-01-25T01:21:43.501Z,90.70
2019-01-25T01:24:32.989Z,90.50
2019-01-25T01:27:22.103Z,87.73
2019-01-25T01:30:13.835Z,98.63
2019-01-25T01:33:02.325Z,94.30
2019-01-25T01:35:50.804Z,94.00
2019-01-25T01:38:40.040Z,101.57
2019-01-25T01:41:28.700Z,91.93
2019-01-25T01:44:17.669Z,96.03
2019-01-25T01:47:06.598Z,93.37
2019-01-25T01:49:55.594Z,89.23
2019-01-25T01:52:44.745Z,94.53
2019-01-25T01:55:33.576Z,100.27
2019-01-25T01:58:23.143Z,100.50
2019-01-25T02:01:11.812Z,102.30
2019-01-25T02:04:00.355Z,100.33
2019-01-25T02:06:48.838Z,92.63
2019-01-25T02:09:37.663Z,89.93
2019-01-25T02:12:28.273Z,98.90
2019-01-25T02:15:18.028Z,95.70
2019-01-25T02:18:07.077Z,90.43
2019-01-25T02:20:37.119Z,97.40
2019-01-25T02:23:26.537Z,91.93
2019-01-25T02:26:15.213Z,100.70
2019-01-25T02:29:03.845Z,94.57
2019-01-25T02:31:52.953Z,85.90
2019-01-25T02:34:41.444Z,94.67
2019-01-25T02:37:29.613Z,96.07
2019-01-25T02:40:20.675Z,95.00
2019-01-25T02:43:09.186Z,102.53
2019-01-25T02:45:58.072Z,97.20
2019-01-25T02:48:46.569Z,90.83
2019-01-25T02:51:36.044Z,91.20
2019-01-25T02:54:24.719Z,100.17
2019-01-25T02:57:13.689Z,91.23
2019-01-25T03:00:02.563Z,106.57
2019-01-25T03:02:51.800Z,92.03
2019-01-25T03:05:41.016Z,107.47
2019-01-25T03:08:36.105Z,103.43
2019-01-25T03:11:24.666Z,116.33
2019-01-25T03:14:13.017Z,119.30
2019-01-25T03:17:01.892Z,118.17
2019-01-25T03:19:50.603Z,120.63
2019-01-25T03:22:39.286Z,133.93
2019-01-25T03:25:28.548Z,122.07
2019-01-25T03:28:17.354Z,124.30
2019-01-25T03:31:06.181Z,134.73
2019-01-25T03:33:54.672Z,137.40
2019-01-25T03:36:43.430Z,145.60
2019-01-25T03:39:32.584Z,126.23
2019-01-25T03:42:21.280Z,138.83
2019-01-25T03:45:10.423Z,128.37
2019-01-25T03:47:59.630Z,138.00
2019-01-25T03:50:48.839Z,144.07
2019-01-25T03:53:37.617Z,138.77
2019-01-25T03:56:26.846Z,138.47
2019-01-25T03:59:15.771Z,134.23
2019-01-25T04:02:04.842Z,145.97
2019-01-25T04:04:35.251Z,133.80
2019-01-25T04:07:23.883Z,149.10
2019-01-25T04:10:15.189Z,144.23
2019-01-25T04:13:04.684Z,139.33
2019-01-25T04:15:53.574Z,143.23
2019-01-25T04:18:42.803Z,143.50
2019-01-25T04:21:31.946Z,131.70
2019-01-25T04:24:20.823Z,138.37
2019-01-25T04:27:09.276Z,136.70
2019-01-25T04:29:58.572Z,141.13
2019-01-25T04:32:47.240Z,121.07
2019-01-25T04:35:36.448Z,127.60
2019-01-25T04:38:06.450Z,138.00
2019-01-25T04:40:55.337Z,135.17
2019-01-25T04:43:44.778Z,139.33
2019-01-25T04:46:34.064Z,149.87
2019-01-25T04:49:23.120Z,127.07
2019-01-25T04:52:15.311Z,142.87
2019-01-25T04:55:14.273Z,146.93
2019-01-25T04:58:25.821Z,145.73
2019-01-25T05:01:15.961Z,142.50
2019-01-25T05:04:05.532Z,138.57
2019-01-25T05:06:54.917Z,132.83
2019-01-25T05:09:44.302Z,127.43
2019-01-25T05:12:33.348Z,128.03
2019-01-25T05:15:21.806Z,118.53
2019-01-25T05:18:11.777Z,128.27
2019-01-25T05:21:00.406Z,129.63
2019-01-25T05:23:49.420Z,139.07
2019-01-25T05:26:39.184Z,125.03
2019-01-25T05:29:54.668Z,126.43
2019-01-25T05:32:43.992Z,134.73
2019-01-25T05:35:35.970Z,138.97
2019-01-25T05:38:25.326Z,129.33
2019-01-25T05:41:13.894Z,148.23
2019-01-25T05:44:03.550Z,143.90
2019-01-25T05:46:52.329Z,138.13
2019-01-25T05:49:42.199Z,140.13
2019-01-25T05:52:32.100Z,164.70
2019-01-25T05:55:22.085Z,155.50
2019-01-25T05:58:11.724Z,136.93
2019-01-25T06:01:00.012Z,147.77
2019-01-25T06:03:50.738Z,154.00
2019-01-25T06:06:21.131Z,142.77
2019-01-25T06:08:51.436Z,143.93
2019-01-25T06:11:21.625Z,136.40
2019-01-25T06:13:51.815Z,154.90
2019-01-25T06:16:21.794Z,132.53
2019-01-25T06:19:10.777Z,135.43
2019-01-25T06:21:41.094Z,143.97
2019-01-25T06:24:12.316Z,134.23
2019-01-25T06:26:45.293Z,127.07
2019-01-25T06:29:15.424Z,147.97
2019-01-25T06:31:45.750Z,157.17
2019-01-25T06:34:15.877Z,147.77
2019-01-25T06:37:04.611Z,165.83
2019-01-25T06:39:53.621Z,175.13
2019-01-25T06:42:42.167Z,175.90
2019-01-25T06:45:31.165Z,145.00
2019-01-25T06:48:19.988Z,168.30
2019-01-25T06:51:09.222Z,189.30
2019-01-25T06:53:58.461Z,187.37
2019-01-25T06:56:38.169Z,196.93
2019-01-25T06:59:14.477Z,198.00
2019-01-25T07:02:03.637Z,206.83
2019-01-25T07:04:52.972Z,176.27
2019-01-25T07:07:33.980Z,174.27
2019-01-25T07:10:05.138Z,175.83
2019-01-25T07:12:35.376Z,186.27
2019-01-25T07:15:24.429Z,153.03
2019-01-25T07:18:13.795Z,160.83
2019-01-25T07:20:43.925Z,181.50
2019-01-25T07:23:14.407Z,156.20
2019-01-25T07:25:44.371Z,173.57
2019-01-25T07:28:14.363Z,140.37
2019-01-25T07:30:44.536Z,173.00
2019-01-25T07:33:34.024Z,152.30
2019-01-25T07:36:24.007Z,148.90
2019-01-25T07:38:55.276Z,161.10
2019-01-25T07:41:25.612Z,158.33
2019-01-25T07:43:55.761Z,148.97
2019-01-25T07:46:26.019Z,151.20
2019-01-25T07:48:56.237Z,140.90
2019-01-25T07:51:26.398Z,146.70
2019-01-25T07:53:56.700Z,135.90
2019-01-25T07:56:26.773Z,137.87
2019-01-25T07:59:00.260Z,144.30
2019-01-25T08:01:30.520Z,144.23
2019-01-25T08:04:00.948Z,142.47
2019-01-25T08:06:31.125Z,128.43
2019-01-25T08:09:01.387Z,145.33
2019-01-25T08:11:31.700Z,142.47
2019-01-25T08:14:02.176Z,141.57
2019-01-25T08:16:32.399Z,127.30
2019-01-25T08:19:02.513Z,139.60
2019-01-25T08:21:32.772Z,136.87
2019-01-25T08:24:02.895Z,138.60
2019-01-25T08:26:33.236Z,136.13
2019-01-25T08:29:03.384Z,138.87
2019-01-25T08:31:33.631Z,133.30
2019-01-25T08:34:03.989Z,132.70
2019-01-25T08:36:34.090Z,141.37
2019-01-25T08:39:06.671Z,137.23
2019-01-25T08:41:37.240Z,133.00
2019-01-25T08:44:07.321Z,116.10
2019-01-25T08:46:37.506Z,128.80
2019-01-25T08:49:07.948Z,133.23
2019-01-25T08:51:38.535Z,127.77
2019-01-25T08:54:08.750Z,131.13
2019-01-25T08:56:39.023Z,133.73
2019-01-25T08:59:09.220Z,142.17
2019-01-25T09:01:39.510Z,119.23
2019-01-25T09:04:09.812Z,123.63
2019-01-25T09:06:39.782Z,129.50
2019-01-25T09:09:11.792Z,129.73
2019-01-25T09:11:41.830Z,127.67
2019-01-25T09:14:12.073Z,135.90
2019-01-25T09:16:42.172Z,119.77
2019-01-25T09:19:12.183Z,114.70
2019-01-25T09:21:42.495Z,125.17
2019-01-25T09:24:12.702Z,124.97
2019-01-25T09:26:42.711Z,137.97
2019-01-25T09:29:12.807Z,129.80
2019-01-25T09:31:43.073Z,127.20
2019-01-25T09:34:13.480Z,132.03
2019-01-25T09:36:43.716Z,139.70
2019-01-25T09:39:15.284Z,142.07
2019-01-25T09:41:45.338Z,134.40
2019-01-25T09:44:15.456Z,117.10
2019-01-25T09:46:45.879Z,143.10
2019-01-25T09:49:16.071Z,120.83
2019-01-25T09:51:46.445Z,143.07
2019-01-25T09:54:16.691Z,145.37
2019-01-25T09:56:47.011Z,138.17
2019-01-25T09:59:17.324Z,138.80
2019-01-25T10:01:47.948Z,147.03
2019-01-25T10:04:18.154Z,151.77
2019-01-25T10:06:48.718Z,155.07
2019-01-25T10:09:19.069Z,149.00
2019-01-25T10:11:49.729Z,151.17
2019-01-25T10:14:19.800Z,131.07
2019-01-25T10:16:50.128Z,138.17
2019-01-25T10:19:20.404Z,131.37
2019-01-25T10:21:51.024Z,129.43
2019-01-25T10:24:21.114Z,135.53
2019-01-25T10:26:51.574Z,141.40
2019-01-25T10:29:21.641Z,114.77
2019-01-25T10:31:51.753Z,124.23
2019-01-25T10:34:21.829Z,128.83
2019-01-25T10:36:52.114Z,131.90
2019-01-25T10:39:22.576Z,128.17
2019-01-25T10:41:52.698Z,112.97
2019-01-25T10:44:22.688Z,116.73
2019-01-25T10:46:53.361Z,112.67
2019-01-25T10:49:23.345Z,116.87
2019-01-25T10:51:53.545Z,116.53
2019-01-25T10:54:23.897Z,115.70
2019-01-25T10:56:54.668Z,117.30
2019-01-25T10:59:24.755Z,105.23
2019-01-25T11:01:55.009Z,105.70
2019-01-25T11:04:25.272Z,95.73
2019-01-25T11:06:55.524Z,91.40
2019-01-25T11:09:25.669Z,74.37
2019-01-25T11:11:55.716Z,57.03
2019-01-25T11:14:26.036Z,56.90
2019-01-25T11:16:56.135Z,55.43
2019-01-25T11:19:26.183Z,56.07
2019-01-25T11:21:56.422Z,52.43
2019-01-25T11:24:26.516Z,56.97
2019-01-25T11:27:00.387Z,56.90
2019-01-25T11:29:28.372Z,59.57
2019-01-25T11:31:58.595Z,55.00
2019-01-25T11:34:33.016Z,51.23
2019-01-25T11:37:00.589Z,53.30
2019-01-25T11:39:30.724Z,53.20
2019-01-25T11:42:00.862Z,50.50
2019-01-25T11:44:31.000Z,49.10
2019-01-25T11:47:01.050Z,49.23
2019-01-25T11:49:31.447Z,48.73
2019-01-25T11:52:02.391Z,39.47
2019-01-25T11:54:32.564Z,39.27
2019-01-25T11:57:02.585Z,45.93
2019-01-25T11:59:35.420Z,38.40
2019-01-25T12:02:05.686Z,38.50
2019-01-25T12:04:36.238Z,31.47
2019-01-25T12:07:25.145Z,37.90
2019-01-25T12:10:15.827Z,30.23
2019-01-25T12:12:47.241Z,31.50
2019-01-25T12:15:17.813Z,28.80
2019-01-25T12:17:47.996Z,32.63
2019-01-25T12:20:20.761Z,32.60
2019-01-25T12:22:50.902Z,30.13
2019-01-25T12:25:20.920Z,30.63
2019-01-25T12:27:50.900Z,33.23
2019-01-25T12:30:26.461Z,29.03
2019-01-25T12:32:57.053Z,26.40
2019-01-25T12:35:28.058Z,29.33
2019-01-25T12:37:58.097Z,30.87
2019-01-25T12:40:28.624Z,28.93
2019-01-25T12:42:58.955Z,29.10
2019-01-25T12:45:29.453Z,30.50
2019-01-25T12:47:59.618Z,26.23
2019-01-25T12:50:38.701Z,32.30
2019-01-25T12:53:09.222Z,26.77
2019-01-25T12:55:39.450Z,28.87
2019-01-25T12:58:09.655Z,25.77
2019-01-25T13:00:42.121Z,25.63
2019-01-25T13:03:12.788Z,28.17
2019-01-25T13:05:43.323Z,26.67
2019-01-25T13:08:13.713Z,30.23
2019-01-25T13:10:44.017Z,24.97
2019-01-25T13:13:14.239Z,27.23
2019-01-25T13:15:44.676Z,24.20
2019-01-25T13:18:15.672Z,22.73
2019-01-25T13:20:45.629Z,22.57
2019-01-25T13:23:15.841Z,20.20
2019-01-25T13:25:47.370Z,23.83
2019-01-25T13:28:17.769Z,25.03
2019-01-25T13:30:47.927Z,24.40
2019-01-25T13:33:37.057Z,24.00
2019-01-25T13:36:26.189Z,21.70
2019-01-25T13:39:14.889Z,22.20
2019-01-25T13:42:04.137Z,23.90
2019-01-25T13:44:53.655Z,20.87
2019-01-25T13:47:43.288Z,18.53
2019-01-25T13:50:15.761Z,18.67
2019-01-25T13:52:46.020Z,20.30
2019-01-25T13:55:16.657Z,19.93
2019-01-25T13:57:46.808Z,17.70
2019-01-25T14:00:22.999Z,19.93
2019-01-25T14:03:12.062Z,20.20
2019-01-25T14:06:01.939Z,18.87
2019-01-25T14:08:53.056Z,21.47
2019-01-25T14:11:42.043Z,18.27
2019-01-25T14:14:31.648Z,18.83
2019-01-25T14:17:20.443Z,18.80
2019-01-25T14:20:12.685Z,16.20
2019-01-25T14:23:01.934Z,21.23
2019-01-25T14:25:51.537Z,20.23
2019-01-25T14:28:40.380Z,26.63
2019-01-25T14:31:29.835Z,17.93
2019-01-25T14:34:18.981Z,19.40
2019-01-25T14:37:07.481Z,22.17
2019-01-25T14:39:56.558Z,18.67
2019-01-25T14:42:45.596Z,19.50
2019-01-25T14:45:35.321Z,19.83
2019-01-25T14:48:24.739Z,15.50
2019-01-25T14:51:14.274Z,18.40
2019-01-25T14:54:03.713Z,19.00
2019-01-25T14:56:52.686Z,22.13
2019-01-25T14:59:41.533Z,20.27
2019-01-25T15:02:11.758Z,23.50
2019-01-25T15:04:42.153Z,19.40
2019-01-25T15:07:12.406Z,19.27
2019-01-25T15:09:42.604Z,20.73
2019-01-25T15:12:12.796Z,22.10
2019-01-25T15:14:43.072Z,21.40
2019-01-25T15:17:13.513Z,17.53
2019-01-25T15:19:44.695Z,22.63
2019-01-25T15:22:15.368Z,19.43
2019-01-25T15:24:45.555Z,17.30
2019-01-25T15:27:15.712Z,16.40
2019-01-25T15:29:46.150Z,20.97
2019-01-25T15:32:16.296Z,17.40
2019-01-25T15:34:46.662Z,16.23
2019-01-25T15:37:16.717Z,16.30
2019-01-25T15:39:46.957Z,16.30
2019-01-25T15:42:17.038Z,20.13
2019-01-25T15:44:47.395Z,21.60
2019-01-25T15:47:17.450Z,18.93
2019-01-25T15:49:47.827Z,24.63
2019-01-25T15:52:18.042Z,25.80
2019-01-25T15:54:48.320Z,23.53
2019-01-25T15:57:18.934Z,25.43
2019-01-25T15:59:49.511Z,24.97
2019-01-25T16:02:19.979Z,26.90
2019-01-25T16:04:50.163Z,25.80
2019-01-25T16:07:20.301Z,33.10
2019-01-25T16:09:50.774Z,28.90
2019-01-25T16:12:21.080Z,27.60
2019-01-25T16:14:51.373Z,35.47
2019-01-25T16:17:21.627Z,33.57
2019-01-25T16:19:51.814Z,37.17
2019-01-25T16:22:21.938Z,34.83
2019-01-25T16:24:52.077Z,35.77
2019-01-25T16:27:22.263Z,40.40
2019-01-25T16:29:52.668Z,34.07
2019-01-25T16:32:22.727Z,38.63
2019-01-25T16:34:53.020Z,35.10
2019-01-25T16:37:23.201Z,37.83
2019-01-25T16:39:53.497Z,42.77
2019-01-25T16:42:23.639Z,45.17
2019-01-25T16:44:54.055Z,47.07
2019-01-25T16:47:24.194Z,50.00
2019-01-25T16:49:54.306Z,43.83
2019-01-25T16:52:24.591Z,43.47
2019-01-25T16:54:55.008Z,51.20
2019-01-25T16:57:25.367Z,57.73
2019-01-25T16:59:55.426Z,47.67
2019-01-25T17:02:25.665Z,53.97
2019-01-25T17:04:55.941Z,45.37
2019-01-25T17:07:26.167Z,54.17
2019-01-25T17:09:56.503Z,54.03
2019-01-25T17:12:45.612Z,55.07
2019-01-25T17:15:34.813Z,55.73
2019-01-25T17:18:23.558Z,55.60
2019-01-25T17:21:12.910Z,55.27
2019-01-25T17:24:02.008Z,55.30
2019-01-25T17:26:51.123Z,58.90
2019-01-25T17:29:40.189Z,57.33
2019-01-25T17:32:29.548Z,51.20
2019-01-25T17:35:18.940Z,52.83
2019-01-25T17:38:08.919Z,50.67
2019-01-25T17:40:58.288Z,50.93
2019-01-25T17:43:28.457Z,53.00
2019-01-25T17:46:17.153Z,49.60
2019-01-25T17:49:06.304Z,54.03
2019-01-25T17:51:55.243Z,50.83
2019-01-25T17:54:31.637Z,54.40
2019-01-25T17:57:20.522Z,56.80
2019-01-25T18:00:21.193Z,49.93
2019-01-25T18:03:10.199Z,56.20
2019-01-25T18:05:59.433Z,57.27
2019-01-25T18:08:48.710Z,54.03
2019-01-25T18:11:37.627Z,55.73
2019-01-25T18:14:26.633Z,51.83
2019-01-25T18:17:16.107Z,47.53
2019-01-25T18:20:05.905Z,54.90
2019-01-25T18:22:55.661Z,52.97
2019-01-25T18:26:11.345Z,48.97
2019-01-25T18:29:30.628Z,58.33
2019-01-25T18:32:20.292Z,45.53
2019-01-25T18:35:09.642Z,49.00
2019-01-25T18:37:58.652Z,46.97
2019-01-25T18:40:48.903Z,51.97
2019-01-25T18:43:19.166Z,47.10
2019-01-25T18:46:08.508Z,49.23
2019-01-25T18:48:57.333Z,51.13
2019-01-25T18:51:46.503Z,56.00
2019-01-25T18:54:35.742Z,56.63
2019-01-25T18:57:24.935Z,53.40
2019-01-25T19:00:17.493Z,59.20
2019-01-25T19:03:08.320Z,56.20
2019-01-25T19:05:58.257Z,52.73
2019-01-25T19:08:47.506Z,53.27
2019-01-25T19:11:38.416Z,52.87
2019-01-25T19:14:27.770Z,62.03
2019-01-25T19:17:17.389Z,53.20
2019-01-25T19:20:09.483Z,56.07
2019-01-25T19:22:40.070Z,52.60
2019-01-25T19:25:10.399Z,49.40
2019-01-25T19:27:41.866Z,51.97
2019-01-25T19:30:32.252Z,61.00
2019-01-25T19:33:02.538Z,52.50
2019-01-25T19:35:33.256Z,55.80
2019-01-25T19:38:04.451Z,59.17
2019-01-25T19:40:34.424Z,52.77
2019-01-25T19:43:05.058Z,54.73
2019-01-25T19:45:35.394Z,57.30
2019-01-25T19:48:06.738Z,54.70
2019-01-25T19:50:37.047Z,49.93
2019-01-25T19:53:26.455Z,56.90
2019-01-25T19:56:15.189Z,53.53
2019-01-25T19:58:45.575Z,61.83
2019-01-25T20:01:15.759Z,51.87
2019-01-25T20:03:46.218Z,50.37
2019-01-25T20:06:16.594Z,60.90
2019-01-25T20:08:47.182Z,56.07
2019-01-25T20:11:17.919Z,56.33
2019-01-25T20:13:48.314Z,55.13
2019-01-25T20:16:18.295Z,58.00
2019-01-25T20:18:48.407Z,54.97
2019-01-25T20:21:18.667Z,56.40
2019-01-25T20:23:49.066Z,51.10
2019-01-25T20:26:19.594Z,53.83
2019-01-25T20:28:49.886Z,60.33
2019-01-25T20:31:20.425Z,51.13
2019-01-25T20:33:50.705Z,57.40
2019-01-25T20:36:21.197Z,51.40
2019-01-25T20:38:51.402Z,54.93
2019-01-25T20:41:40.317Z,47.93
2019-01-25T20:44:29.590Z,46.40
2019-01-25T20:47:18.962Z,51.87
2019-01-25T20:50:11.804Z,48.73
2019-01-25T20:53:00.878Z,51.13
2019-01-25T20:55:49.582Z,48.30
2019-01-25T20:58:38.744Z,52.30
2019-01-25T21:01:27.782Z,44.70
2019-01-25T21:04:16.792Z,46.93
2019-01-25T21:07:06.561Z,49.23
2019-01-25T21:09:55.278Z,51.30
2019-01-25T21:12:45.190Z,45.07
2019-01-25T21:15:35.384Z,46.70
2019-01-25T21:18:25.377Z,48.20
2019-01-25T21:21:14.649Z,52.13
2019-01-25T21:24:04.277Z,49.70
2019-01-25T21:26:53.592Z,51.50
2019-01-25T21:29:26.986Z,46.80
2019-01-25T21:32:16.071Z,50.77
2019-01-25T21:35:05.794Z,45.80
2019-01-25T21:37:54.888Z,48.00
2019-01-25T21:40:43.847Z,41.33
2019-01-25T21:43:33.304Z,48.30
2019-01-25T21:46:21.933Z,46.40
2019-01-25T21:49:10.770Z,46.50
2019-01-25T21:51:59.852Z,45.67
2019-01-25T21:54:49.309Z,45.10
2019-01-25T21:57:38.058Z,40.13
2019-01-25T22:00:16.233Z,45.03
2019-01-25T22:03:06.169Z,41.40
2019-01-25T22:05:54.820Z,42.33
2019-01-25T22:08:43.916Z,40.17
2019-01-25T22:11:33.218Z,42.73
2019-01-25T22:14:22.313Z,46.97
2019-01-25T22:17:11.928Z,44.80
2019-01-25T22:20:01.122Z,41.90
2019-01-25T22:22:50.039Z,44.23
2019-01-25T22:25:39.306Z,47.20
2019-01-25T22:28:27.852Z,52.50
2019-01-25T22:31:16.819Z,45.60
2019-01-25T22:34:05.762Z,44.43
2019-01-25T22:36:55.136Z,43.53
2019-01-25T22:39:44.706Z,41.73
2019-01-25T22:42:34.459Z,46.30
2019-01-25T22:45:25.186Z,47.90
2019-01-25T22:48:13.740Z,41.70
2019-01-25T22:51:03.287Z,42.13
2019-01-25T22:53:52.002Z,48.40
2019-01-25T22:56:41.221Z,45.50
2019-01-25T22:59:30.729Z,46.63
2019-01-25T23:02:20.076Z,44.43
2019-01-25T23:06:05.225Z,41.87
2019-01-25T23:08:54.018Z,46.07
2019-01-25T23:11:43.764Z,45.80
2019-01-25T23:14:32.929Z,48.37
2019-01-25T23:17:22.421Z,46.07
2019-01-25T23:23:01.980Z,45.43
2019-01-25T23:25:50.992Z,48.27
2019-01-25T23:28:40.316Z,46.03
2019-01-25T23:31:29.398Z,46.40
2019-01-25T23:34:18.767Z,45.37
2019-01-25T23:37:07.371Z,42.57
2019-01-25T23:39:56.421Z,46.20
2019-01-25T23:42:45.845Z,53.77
2019-01-25T23:45:34.367Z,47.30
2019-01-25T23:48:23.383Z,54.90
2019-01-25T23:51:12.731Z,52.17
2019-01-25T23:54:01.809Z,50.93
2019-01-25T23:56:51.011Z,56.63
2019-01-25T23:59:39.649Z,58.63
